createdAt,value
2023-02-24T06:03:04.794Z,495.00
2023-02-24T06:04:04.789Z,494.00
2023-02-24T06:05:05.751Z,495.00
2023-02-24T06:06:05.775Z,495.00
2023-02-24T06:07:05.793Z,493.00
2023-02-24T06:08:05.832Z,494.00
2023-02-24T06:09:05.867Z,493.00
2023-02-24T06:10:05.906Z,493.00
2023-02-24T06:11:04.928Z,494.00
2023-02-24T06:12:05.061Z,494.00
2023-02-24T06:13:05.961Z,493.00
2023-02-24T06:14:05.959Z,493.00
2023-02-24T06:15:05.961Z,490.00
2023-02-24T06:16:04.979Z,488.00
2023-02-24T06:17:05.968Z,487.00
2023-02-24T06:18:05.986Z,490.00
2023-02-24T06:19:06.036Z,492.00
2023-02-24T06:20:06.010Z,493.00
2023-02-24T06:21:06.033Z,490.00
2023-02-24T06:22:05.061Z,489.00
2023-02-24T06:23:05.069Z,488.00
2023-02-24T06:24:05.077Z,487.00
2023-02-24T06:25:06.119Z,488.00
2023-02-24T06:26:06.101Z,488.00
2023-02-24T06:27:06.118Z,490.00
2023-02-24T06:28:06.157Z,493.00
2023-02-24T06:29:06.187Z,493.00
2023-02-24T06:30:06.238Z,491.00
2023-02-24T06:31:06.306Z,492.00
2023-02-24T06:32:06.481Z,491.00
2023-02-24T06:33:05.400Z,490.00
2023-02-24T06:34:06.451Z,490.00
2023-02-24T06:35:06.514Z,488.00
2023-02-24T06:36:06.557Z,488.00
2023-02-24T06:37:06.594Z,490.00
2023-02-24T06:38:06.668Z,489.00
2023-02-24T06:39:06.722Z,493.00
2023-02-24T06:40:06.799Z,494.00
2023-02-24T06:41:06.837Z,491.00
2023-02-24T06:42:05.916Z,490.00
2023-02-24T06:43:06.996Z,488.00
2023-02-24T06:44:07.037Z,487.00
2023-02-24T06:45:07.873Z,486.00
2023-02-24T06:46:07.253Z,485.00
2023-02-24T06:47:07.213Z,486.00
2023-02-24T06:48:07.290Z,487.00
2023-02-24T06:49:07.339Z,490.00
2023-02-24T06:51:06.496Z,491.00
2023-02-24T06:53:06.566Z,490.00
2023-02-24T06:54:06.644Z,489.00
2023-02-24T06:55:07.702Z,486.00
2023-02-24T06:56:07.760Z,489.00
2023-02-24T06:58:07.870Z,488.00
2023-02-24T06:59:07.966Z,487.00
2023-02-24T07:00:08.001Z,489.00
2023-02-24T07:01:08.207Z,489.00
2023-02-24T07:02:07.115Z,490.00
2023-02-24T07:04:08.318Z,484.00
2023-02-24T07:05:08.251Z,485.00
2023-02-24T07:06:07.309Z,496.00
2023-02-24T07:07:08.398Z,591.00
2023-02-24T07:08:07.432Z,594.00
2023-02-24T07:09:08.501Z,606.00
2023-02-24T07:10:07.548Z,615.00
2023-02-24T07:11:08.576Z,624.00
2023-02-24T07:14:08.705Z,675.00
2023-02-24T07:18:08.810Z,752.00
2023-02-24T07:19:08.845Z,761.00
2023-02-24T07:20:08.853Z,769.00
2023-02-24T07:21:08.931Z,799.00
2023-02-24T07:22:08.907Z,818.00
2023-02-24T07:23:07.967Z,841.00
2023-02-24T07:24:08.962Z,863.00
2023-02-24T07:25:08.958Z,885.00
2023-02-24T07:26:09.052Z,906.00
2023-02-24T07:27:08.995Z,916.00
2023-02-24T07:28:09.000Z,927.00
2023-02-24T07:29:08.008Z,938.00
2023-02-24T07:30:09.001Z,981.00
2023-02-24T07:31:09.169Z,990.00
2023-02-24T07:32:08.211Z,997.00
2023-02-24T07:34:09.040Z,1027.00
2023-02-24T07:36:09.042Z,1057.00
2023-02-24T07:37:09.056Z,1067.00
2023-02-24T07:38:09.011Z,1084.00
2023-02-24T07:39:09.127Z,1104.00
2023-02-24T07:40:09.013Z,1118.00
2023-02-24T07:41:09.036Z,1124.00
2023-02-24T07:42:09.027Z,1138.00
2023-02-24T07:43:09.037Z,1153.00
2023-02-24T07:44:09.099Z,1166.00
2023-02-24T07:45:09.096Z,1178.00
2023-02-24T07:46:09.144Z,1203.00
2023-02-24T07:47:09.033Z,1211.00
2023-02-24T07:48:09.050Z,1212.00
2023-02-24T07:49:09.057Z,1234.00
2023-02-24T07:50:09.042Z,1299.00
2023-02-24T07:51:09.085Z,1287.00
2023-02-24T07:52:09.080Z,1136.00
2023-02-24T07:53:08.115Z,1119.00
2023-02-24T07:54:09.474Z,1054.00
2023-02-24T07:55:09.250Z,1056.00
2023-02-24T07:56:09.240Z,1013.00
2023-02-24T07:57:09.349Z,1141.00
2023-02-24T07:58:09.316Z,1128.00
2023-02-24T07:59:09.327Z,1125.00
2023-02-24T08:00:11.374Z,1153.00
2023-02-24T08:01:08.354Z,1143.00
2023-02-24T08:02:08.404Z,1150.00
2023-02-24T08:03:09.356Z,1133.00
2023-02-24T08:04:09.313Z,1103.00
2023-02-24T08:05:09.373Z,1143.00
2023-02-24T08:06:09.296Z,1114.00
2023-02-24T08:08:09.278Z,1052.00
2023-02-24T08:09:09.275Z,1033.00
2023-02-24T08:10:09.250Z,971.00
2023-02-24T08:11:08.274Z,987.00
2023-02-24T08:12:09.237Z,1056.00
2023-02-24T08:13:09.240Z,1045.00
2023-02-24T08:14:09.233Z,977.00
2023-02-24T08:15:09.289Z,996.00
2023-02-24T08:16:09.247Z,1007.00
2023-02-24T08:17:09.211Z,935.00
2023-02-24T08:18:09.209Z,880.00
2023-02-24T08:20:09.211Z,790.00
2023-02-24T08:21:09.242Z,822.00
2023-02-24T08:22:09.173Z,896.00
2023-02-24T08:23:09.162Z,919.00
2023-02-24T08:25:09.153Z,934.00
2023-02-24T08:26:09.197Z,948.00
2023-02-24T08:27:09.168Z,930.00
2023-02-24T08:28:09.795Z,916.00
2023-02-24T08:29:09.138Z,851.00
2023-02-24T08:30:09.107Z,928.00
2023-02-24T08:31:09.156Z,912.00
2023-02-24T08:32:09.237Z,886.00
2023-02-24T08:33:09.196Z,893.00
2023-02-24T08:34:09.086Z,925.00
2023-02-24T08:36:09.070Z,1011.00
2023-02-24T08:37:09.112Z,1044.00
2023-02-24T08:40:09.175Z,1150.00
2023-02-24T08:41:09.189Z,1148.00
2023-02-24T08:42:09.257Z,1160.00
2023-02-24T08:43:09.340Z,1207.00
2023-02-24T08:44:09.382Z,1258.00
2023-02-24T08:46:08.493Z,1306.00
2023-02-24T08:47:09.535Z,1154.00
2023-02-24T08:48:09.608Z,1079.00
2023-02-24T08:49:09.018Z,933.00
2023-02-24T08:50:09.628Z,905.00
2023-02-24T08:51:09.626Z,920.00
2023-02-24T08:52:08.667Z,894.00
2023-02-24T08:53:08.710Z,935.00
2023-02-24T08:54:09.075Z,933.00
2023-02-24T08:55:09.826Z,956.00
2023-02-24T08:56:09.867Z,934.00
2023-02-24T08:57:08.912Z,980.00
2023-02-24T08:58:09.954Z,1000.00
2023-02-24T08:59:09.043Z,983.00
2023-02-24T09:00:10.067Z,973.00
2023-02-24T09:01:10.157Z,917.00
2023-02-24T09:02:10.176Z,907.00
2023-02-24T09:03:10.218Z,931.00
2023-02-24T09:04:10.390Z,932.00
2023-02-24T09:05:13.049Z,966.00
2023-02-24T09:06:10.326Z,961.00
2023-02-24T09:07:11.955Z,973.00
2023-02-24T09:11:09.364Z,976.00
2023-02-24T09:12:09.270Z,976.00
2023-02-24T09:13:10.268Z,976.00
2023-02-24T09:14:21.146Z,978.00
2023-02-24T09:15:10.283Z,975.00
2023-02-24T09:16:10.299Z,974.00
2023-02-24T09:17:10.227Z,981.00
2023-02-24T09:18:10.237Z,1028.00
2023-02-24T09:20:10.252Z,1000.00
2023-02-24T09:21:10.209Z,1005.00
2023-02-24T09:22:16.572Z,1010.00
2023-02-24T09:23:10.195Z,1018.00
2023-02-24T09:24:10.192Z,1033.00
2023-02-24T09:25:10.174Z,993.00
2023-02-24T09:26:09.181Z,989.00
2023-02-24T09:27:10.156Z,1068.00
2023-02-24T09:28:09.226Z,1044.00
2023-02-24T09:29:10.178Z,1036.00
2023-02-24T09:30:10.193Z,1033.00
2023-02-24T09:31:10.301Z,1025.00
2023-02-24T09:32:09.307Z,1020.00
2023-02-24T09:33:10.266Z,1017.00
2023-02-24T09:34:10.129Z,1016.00
2023-02-24T09:35:09.117Z,1003.00
2023-02-24T09:36:10.304Z,1021.00
2023-02-24T09:37:10.107Z,1025.00
2023-02-24T09:38:10.120Z,1021.00
2023-02-24T09:39:10.125Z,1008.00
2023-02-24T09:40:09.068Z,1005.00
2023-02-24T09:41:18.308Z,1001.00
2023-02-24T09:42:10.073Z,913.00
2023-02-24T09:43:10.162Z,848.00
2023-02-24T09:45:10.048Z,772.00
2023-02-24T09:46:10.197Z,786.00
2023-02-24T09:47:10.080Z,777.00
2023-02-24T09:48:09.018Z,764.00
2023-02-24T09:49:10.012Z,764.00
2023-02-24T09:50:10.003Z,743.00
2023-02-24T09:52:09.999Z,754.00
2023-02-24T09:53:11.415Z,756.00
2023-02-24T09:54:09.082Z,825.00
2023-02-24T09:55:09.089Z,872.00
2023-02-24T09:56:09.071Z,888.00
2023-02-24T09:57:10.187Z,893.00
2023-02-24T09:58:10.198Z,896.00
2023-02-24T10:00:10.277Z,893.00
2023-02-24T10:01:09.348Z,895.00
2023-02-24T10:02:09.488Z,893.00
2023-02-24T10:03:10.454Z,930.00
2023-02-24T10:04:20.352Z,934.00
2023-02-24T10:05:10.466Z,958.00
2023-02-24T10:06:10.462Z,963.00
2023-02-24T10:07:10.479Z,1011.00
2023-02-24T10:08:09.466Z,991.00
2023-02-24T10:09:10.441Z,994.00
2023-02-24T10:10:10.428Z,999.00
2023-02-24T10:11:10.417Z,1025.00
2023-02-24T10:12:10.407Z,972.00
2023-02-24T10:13:09.400Z,1012.00
2023-02-24T10:14:10.427Z,1030.00
2023-02-24T10:15:09.388Z,1090.00
2023-02-24T10:16:10.454Z,1090.00
2023-02-24T10:17:10.370Z,1082.00
2023-02-24T10:18:09.363Z,1081.00
2023-02-24T10:19:10.416Z,1066.00
2023-02-24T10:20:10.350Z,1075.00
2023-02-24T10:21:10.419Z,1054.00
2023-02-24T10:22:10.344Z,1096.00
2023-02-24T10:23:09.361Z,1102.00
2023-02-24T10:24:09.357Z,1091.00
2023-02-24T10:25:09.320Z,1073.00
2023-02-24T10:26:10.319Z,1080.00
2023-02-24T10:27:16.764Z,1131.00
2023-02-24T10:28:10.316Z,1109.00
2023-02-24T10:29:10.300Z,1139.00
2023-02-24T10:30:09.273Z,1149.00
2023-02-24T10:31:10.664Z,1144.00
2023-02-24T10:32:10.632Z,1150.00
2023-02-24T10:33:09.257Z,1151.00
2023-02-24T10:34:10.251Z,1156.00
2023-02-24T10:35:10.277Z,1166.00
2023-02-24T10:36:10.226Z,1157.00
2023-02-24T10:37:14.090Z,1164.00
2023-02-24T10:38:10.224Z,1212.00
2023-02-24T10:39:10.230Z,1244.00
2023-02-24T10:40:10.478Z,1256.00
2023-02-24T10:41:10.192Z,1249.00
2023-02-24T10:42:10.238Z,1229.00
2023-02-24T10:43:10.239Z,1231.00
2023-02-24T10:44:10.279Z,1233.00
2023-02-24T10:45:09.843Z,1204.00
2023-02-24T10:46:09.194Z,1134.00
2023-02-24T10:47:10.160Z,1121.00
2023-02-24T10:48:12.000Z,1221.00
2023-02-24T10:49:09.138Z,1236.00
2023-02-24T10:50:10.552Z,1320.00
2023-02-24T10:51:10.156Z,1324.00
2023-02-24T10:52:10.203Z,1327.00
2023-02-24T10:53:10.108Z,1339.00
2023-02-24T10:54:10.433Z,1377.00
2023-02-24T10:55:10.141Z,1374.00
2023-02-24T10:56:10.117Z,1376.00
2023-02-24T10:57:09.075Z,1383.00
2023-02-24T10:58:10.062Z,1408.00
2023-02-24T10:59:10.058Z,1414.00
2023-02-24T11:00:09.055Z,1432.00
2023-02-24T11:01:10.165Z,1434.00
2023-02-24T11:02:10.064Z,1431.00
2023-02-24T11:03:09.097Z,1439.00
2023-02-24T11:04:10.024Z,1433.00
2023-02-24T11:05:10.019Z,1438.00
2023-02-24T11:06:10.031Z,1438.00
2023-02-24T11:07:10.033Z,1442.00
2023-02-24T11:08:09.985Z,1440.00
2023-02-24T11:09:09.991Z,1379.00
2023-02-24T11:10:10.494Z,1381.00
2023-02-24T11:11:09.964Z,1396.00
2023-02-24T11:12:09.961Z,1388.00
2023-02-24T11:13:10.379Z,1389.00
2023-02-24T11:14:09.962Z,1384.00
2023-02-24T11:15:09.954Z,1379.00
2023-02-24T11:16:10.048Z,1369.00
2023-02-24T11:17:09.918Z,1376.00
2023-02-24T11:18:08.925Z,1401.00
2023-02-24T11:19:08.918Z,1402.00
2023-02-24T11:20:09.911Z,1374.00
2023-02-24T11:21:08.906Z,1386.00
2023-02-24T11:22:09.886Z,1381.00
2023-02-24T11:23:08.915Z,1390.00
2023-02-24T11:24:08.889Z,1374.00
2023-02-24T11:25:09.921Z,1365.00
2023-02-24T11:26:09.951Z,1323.00
2023-02-24T11:27:09.990Z,1299.00
2023-02-24T11:28:10.273Z,1282.00
2023-02-24T11:30:09.151Z,1253.00
2023-02-24T11:31:10.411Z,1216.00
2023-02-24T11:32:12.675Z,1125.00
2023-02-24T11:33:10.299Z,1155.00
2023-02-24T11:34:09.451Z,1182.00
2023-02-24T11:35:10.257Z,1161.00
2023-02-24T11:37:10.671Z,1161.00
2023-02-24T11:38:10.506Z,1173.00
2023-02-24T11:39:18.923Z,1176.00
2023-02-24T11:40:10.241Z,1091.00
2023-02-24T11:41:10.496Z,952.00
2023-02-24T11:42:10.199Z,976.00
2023-02-24T11:43:10.523Z,664.00
2023-02-24T11:44:13.300Z,846.00
2023-02-24T11:45:10.572Z,766.00
2023-02-24T11:46:10.234Z,850.00
2023-02-24T11:47:10.177Z,891.00
2023-02-24T11:48:10.158Z,1018.00
2023-02-24T11:49:10.142Z,1177.00
2023-02-24T11:50:10.144Z,1151.00
2023-02-24T11:51:09.142Z,1083.00
2023-02-24T11:52:10.130Z,1077.00
2023-02-24T11:53:10.124Z,1083.00
2023-02-24T11:54:10.125Z,1075.00
2023-02-24T11:55:10.140Z,1135.00
2023-02-24T11:56:10.112Z,1093.00
2023-02-24T11:57:10.099Z,1089.00
2023-02-24T11:58:10.143Z,1108.00
2023-02-24T11:59:10.210Z,1122.00
2023-02-24T12:00:10.289Z,1133.00
2023-02-24T12:01:09.322Z,1147.00
2023-02-24T12:02:10.371Z,1133.00
2023-02-24T12:03:10.484Z,1107.00
2023-02-24T12:04:10.476Z,1081.00
2023-02-24T12:05:10.521Z,1059.00
2023-02-24T12:06:10.670Z,1038.00
2023-02-24T12:07:10.613Z,1052.00
2023-02-24T12:08:10.672Z,1037.00
2023-02-24T12:09:10.709Z,1006.00
2023-02-24T12:10:17.184Z,1078.00
2023-02-24T12:11:10.776Z,1170.00
2023-02-24T12:12:12.812Z,1055.00
2023-02-24T12:13:10.751Z,1054.00
2023-02-24T12:14:10.738Z,1113.00
2023-02-24T12:15:10.727Z,1037.00
2023-02-24T12:16:10.772Z,1025.00
2023-02-24T12:17:10.706Z,1000.00
2023-02-24T12:18:10.671Z,958.00
2023-02-24T12:19:09.693Z,968.00
2023-02-24T12:20:10.701Z,1015.00
2023-02-24T12:21:10.686Z,1000.00
2023-02-24T12:22:10.684Z,1001.00
2023-02-24T12:23:10.685Z,1039.00
2023-02-24T12:24:10.668Z,1036.00
2023-02-24T12:25:10.674Z,1033.00
2023-02-24T12:26:10.704Z,1034.00
2023-02-24T12:27:10.782Z,1060.00
2023-02-24T12:28:10.810Z,1071.00
2023-02-24T12:29:10.869Z,1075.00
2023-02-24T12:30:09.922Z,1063.00
2023-02-24T12:31:11.163Z,1022.00
2023-02-24T12:32:11.301Z,1099.00
2023-02-24T12:33:11.167Z,837.00
2023-02-24T12:34:11.116Z,641.00
2023-02-24T12:35:11.171Z,690.00
2023-02-24T12:36:11.196Z,759.00
2023-02-24T12:37:10.214Z,893.00
2023-02-24T12:38:11.231Z,873.00
2023-02-24T12:39:11.295Z,843.00
2023-02-24T12:40:11.605Z,816.00
2023-02-24T12:41:10.339Z,796.00
2023-02-24T12:42:11.406Z,771.00
2023-02-24T12:43:10.475Z,737.00
2023-02-24T12:44:11.531Z,742.00
2023-02-24T12:45:10.581Z,740.00
2023-02-24T12:46:10.707Z,740.00
2023-02-24T12:47:10.679Z,730.00
2023-02-24T12:48:11.722Z,724.00
2023-02-24T12:49:11.765Z,713.00
2023-02-24T12:50:10.857Z,705.00
2023-02-24T12:51:11.853Z,692.00
2023-02-24T12:52:11.916Z,676.00
2023-02-24T12:53:11.946Z,681.00
2023-02-24T12:54:12.006Z,675.00
2023-02-24T12:55:12.064Z,676.00
2023-02-24T12:56:11.063Z,664.00
2023-02-24T12:57:11.125Z,627.00
2023-02-24T12:58:12.171Z,637.00
2023-02-24T12:59:11.390Z,653.00
2023-02-24T13:00:12.387Z,655.00
2023-02-24T13:01:12.498Z,644.00
2023-02-24T13:02:11.403Z,636.00
2023-02-24T13:03:12.406Z,618.00
2023-02-24T13:04:12.479Z,627.00
2023-02-24T13:05:12.558Z,656.00
2023-02-24T13:06:12.584Z,622.00
2023-02-24T13:07:12.671Z,632.00
2023-02-24T13:08:12.694Z,647.00
2023-02-24T13:09:12.777Z,654.00
2023-02-24T13:10:11.829Z,653.00
2023-02-24T13:11:14.341Z,647.00
2023-02-24T13:12:12.860Z,634.00
2023-02-24T13:13:11.876Z,624.00
2023-02-24T13:14:12.842Z,623.00
2023-02-24T13:15:12.859Z,634.00
2023-02-24T13:16:11.856Z,650.00
2023-02-24T13:17:13.583Z,657.00
2023-02-24T13:18:12.807Z,414.00
2023-02-24T13:19:12.872Z,574.00
2023-02-24T13:20:12.793Z,668.00
2023-02-24T13:21:11.794Z,668.00
2023-02-24T13:22:12.795Z,665.00
2023-02-24T13:23:11.782Z,634.00
2023-02-24T13:24:12.767Z,667.00
2023-02-24T13:25:12.762Z,663.00
2023-02-24T13:26:12.745Z,566.00
2023-02-24T13:27:12.745Z,653.00
2023-02-24T13:28:11.732Z,571.00
2023-02-24T13:29:12.730Z,473.00
2023-02-24T13:30:11.933Z,539.00
2023-02-24T13:31:12.744Z,593.00
2023-02-24T13:32:12.840Z,524.00
2023-02-24T13:33:11.683Z,545.00
2023-02-24T13:34:12.680Z,565.00
2023-02-24T13:35:11.679Z,571.00
2023-02-24T13:36:12.672Z,570.00
2023-02-24T13:37:11.683Z,580.00
2023-02-24T13:38:12.658Z,588.00
2023-02-24T13:39:12.645Z,596.00
2023-02-24T13:40:11.636Z,566.00
2023-02-24T13:41:11.682Z,551.00
2023-02-24T13:42:12.689Z,547.00
2023-02-24T13:43:12.696Z,524.00
2023-02-24T13:44:11.705Z,578.00
2023-02-24T13:45:12.725Z,533.00
2023-02-24T13:46:12.840Z,545.00
2023-02-24T13:47:11.860Z,617.00
2023-02-24T13:48:12.816Z,496.00
2023-02-24T13:49:11.845Z,497.00
2023-02-24T13:50:12.855Z,504.00
2023-02-24T13:51:12.864Z,515.00
2023-02-24T13:52:12.876Z,495.00
2023-02-24T13:53:12.897Z,432.00
2023-02-24T13:54:11.929Z,504.00
2023-02-24T13:55:12.981Z,520.00
2023-02-24T13:56:12.965Z,521.00
2023-02-24T13:57:12.973Z,488.00
2023-02-24T13:58:11.982Z,494.00
2023-02-24T13:59:11.995Z,505.00
2023-02-24T14:00:13.063Z,585.00
2023-02-24T14:01:13.145Z,503.00
2023-02-24T14:02:12.242Z,553.00
2023-02-24T14:03:13.243Z,496.00
2023-02-24T14:04:12.253Z,513.00
2023-02-24T14:05:12.269Z,503.00
2023-02-24T14:06:13.326Z,455.00
2023-02-24T14:07:13.368Z,550.00
2023-02-24T14:08:12.410Z,474.00
2023-02-24T14:09:13.437Z,522.00
2023-02-24T14:10:13.443Z,479.00
2023-02-24T14:11:13.480Z,488.00
2023-02-24T14:12:13.485Z,642.00
2023-02-24T14:13:12.538Z,465.00
2023-02-24T14:14:13.510Z,460.00
2023-02-24T14:15:12.531Z,464.00
2023-02-24T14:16:14.195Z,462.00
2023-02-24T14:17:13.577Z,468.00
2023-02-24T14:18:13.667Z,484.00
2023-02-24T14:19:13.632Z,595.00
2023-02-24T14:20:13.622Z,453.00
2023-02-24T14:21:12.648Z,455.00
2023-02-24T14:22:13.268Z,473.00
2023-02-24T14:23:13.702Z,425.00
2023-02-24T14:24:13.803Z,394.00
2023-02-24T14:25:12.818Z,682.00
2023-02-24T14:26:13.892Z,438.00
2023-02-24T14:27:15.009Z,467.00
2023-02-24T14:28:13.895Z,461.00
2023-02-24T14:29:13.922Z,390.00
2023-02-24T14:30:13.887Z,435.00
2023-02-24T14:31:13.024Z,564.00
2023-02-24T14:32:12.998Z,449.00
2023-02-24T14:33:12.883Z,464.00
2023-02-24T14:34:13.852Z,460.00
2023-02-24T14:35:12.875Z,461.00
2023-02-24T14:36:12.842Z,460.00
2023-02-24T14:37:13.836Z,510.00
2023-02-24T14:38:13.828Z,458.00
2023-02-24T14:39:12.832Z,428.00
2023-02-24T14:40:12.814Z,416.00
2023-02-24T14:41:12.818Z,430.00
2023-02-24T14:42:12.842Z,467.00
2023-02-24T14:43:12.811Z,439.00
2023-02-24T14:44:13.806Z,429.00
2023-02-24T14:45:12.796Z,439.00
2023-02-24T14:46:13.859Z,476.00
2023-02-24T14:47:13.804Z,511.00
2023-02-24T14:48:12.757Z,368.00
2023-02-24T14:49:13.762Z,407.00
2023-02-24T14:50:13.756Z,414.00
2023-02-24T14:51:13.785Z,438.00
2023-02-24T14:52:12.726Z,437.00
2023-02-24T14:53:12.734Z,441.00
2023-02-24T14:54:13.717Z,480.00
2023-02-24T14:55:13.740Z,466.00
2023-02-24T14:56:13.791Z,425.00
2023-02-24T14:57:12.695Z,445.00
2023-02-24T14:58:13.686Z,439.00
2023-02-24T15:57:15.192Z,472.00
2023-02-24T16:01:14.450Z,482.00
2023-02-24T16:05:15.455Z,498.00
2023-02-24T16:08:15.560Z,513.00
2023-02-24T16:11:15.694Z,523.00
2023-02-24T16:16:15.870Z,550.00
2023-02-24T16:17:15.856Z,554.00
2023-02-24T16:18:15.885Z,557.00
2023-02-24T16:19:15.911Z,559.00
2023-02-24T16:20:15.971Z,559.00
2023-02-24T16:21:16.044Z,561.00
2023-02-24T16:22:16.014Z,558.00
2023-02-24T16:24:16.072Z,574.00
2023-02-24T16:25:16.115Z,572.00
2023-02-24T16:26:16.218Z,571.00
2023-02-24T16:27:16.207Z,572.00
